createdAt,value
2023-03-04T00:02:25.986Z,101711.44
2023-03-04T00:04:52.952Z,101718.56
2023-03-04T00:07:19.946Z,101714.22
2023-03-04T00:09:47.630Z,101719.66
2023-03-04T00:12:14.760Z,101715.38
2023-03-04T00:14:42.076Z,101713.06
2023-03-04T00:17:09.119Z,101716.53
2023-03-04T00:19:36.401Z,101719.34
2023-03-04T00:22:04.669Z,101723.00
2023-03-04T00:24:32.500Z,101722.13
2023-03-04T00:26:59.614Z,101718.72
2023-03-04T00:29:26.999Z,101722.31
2023-03-04T00:31:54.295Z,101723.22
2023-03-04T00:34:21.421Z,101720.72
2023-03-04T00:36:48.563Z,101717.91
2023-03-04T00:39:15.786Z,101724.31
2023-03-04T00:41:42.862Z,101719.16
2023-03-04T00:44:10.322Z,101723.69
2023-03-04T00:46:37.296Z,101726.63
2023-03-04T00:49:04.848Z,101717.78
2023-03-04T00:51:31.784Z,101731.22
2023-03-04T00:54:00.776Z,101728.72
2023-03-04T00:56:28.594Z,101727.88
2023-03-04T00:58:55.863Z,101727.06
2023-03-04T01:01:23.229Z,101725.34
2023-03-04T01:03:51.633Z,101721.91
2023-03-04T01:06:18.605Z,101726.50
2023-03-04T01:08:45.524Z,101721.59
2023-03-04T01:11:12.613Z,101716.16
2023-03-04T01:13:40.423Z,101705.59
2023-03-04T01:16:08.030Z,101706.69
2023-03-04T01:18:35.125Z,101699.81
2023-03-04T01:21:02.783Z,101699.09
2023-03-04T01:23:29.903Z,101698.34
2023-03-04T01:25:56.903Z,101696.78
2023-03-04T01:28:25.369Z,101700.50
2023-03-04T01:30:52.386Z,101692.53
2023-03-04T01:33:19.414Z,101689.25
2023-03-04T01:35:46.478Z,101685.00
2023-03-04T01:38:13.450Z,101681.50
2023-03-04T01:40:40.911Z,101688.75
2023-03-04T01:43:08.114Z,101679.09
2023-03-04T01:45:36.198Z,101684.38
2023-03-04T01:48:03.969Z,101678.25
2023-03-04T01:50:34.295Z,101675.69
2023-03-04T01:53:04.855Z,101676.56
2023-03-04T01:55:31.954Z,101671.31
2023-03-04T01:57:59.312Z,101673.09
2023-03-04T02:00:32.934Z,101677.53
2023-03-04T02:03:11.457Z,101676.81
2023-03-04T02:05:41.570Z,101674.16
2023-03-04T02:08:10.014Z,101674.22
2023-03-04T02:10:37.514Z,101666.31
2023-03-04T02:13:06.526Z,101665.72
2023-03-04T02:15:33.666Z,101671.06
2023-03-04T02:18:01.428Z,101663.88
2023-03-04T02:20:51.530Z,101659.44
2023-03-04T02:23:25.555Z,101665.16
2023-03-04T02:26:14.248Z,101665.38
2023-03-04T02:28:42.534Z,101664.50
2023-03-04T02:31:24.384Z,101662.88
2023-03-04T02:33:53.298Z,101662.88
2023-03-04T02:36:20.301Z,101653.13
2023-03-04T02:38:47.240Z,101643.50
2023-03-04T02:41:17.585Z,101644.50
2023-03-04T02:43:52.386Z,101642.63
2023-03-04T02:46:19.819Z,101637.47
2023-03-04T02:48:47.574Z,101632.00
2023-03-04T02:51:14.483Z,101638.34
2023-03-04T02:53:41.763Z,101620.63
2023-03-04T02:56:09.008Z,101623.41
2023-03-04T02:58:38.421Z,101624.41
2023-03-04T03:01:06.489Z,101618.31
2023-03-04T03:03:33.520Z,101617.75
2023-03-04T03:06:00.457Z,101620.25
2023-03-04T03:08:27.365Z,101617.75
2023-03-04T03:10:54.905Z,101632.69
2023-03-04T03:13:23.423Z,101623.81
2023-03-04T03:15:50.821Z,101628.19
2023-03-04T03:18:17.826Z,101627.28
2023-03-04T03:20:44.784Z,101621.25
2023-03-04T03:23:11.720Z,101623.03
2023-03-04T03:25:38.698Z,101627.53
2023-03-04T03:28:06.665Z,101619.84
2023-03-04T03:30:33.718Z,101624.44
2023-03-04T03:33:00.664Z,101620.06
2023-03-04T03:35:28.519Z,101616.84
2023-03-04T03:37:56.407Z,101608.88
2023-03-04T03:40:23.344Z,101610.66
2023-03-04T03:42:50.324Z,101611.53
2023-03-04T03:45:17.286Z,101612.31
2023-03-04T03:47:44.177Z,101606.88
2023-03-04T03:50:12.092Z,101600.56
2023-03-04T03:52:38.987Z,101603.16
2023-03-04T03:55:06.263Z,101603.16
2023-03-04T03:57:33.245Z,101602.28
2023-03-04T04:00:00.112Z,101601.44
2023-03-04T04:02:27.058Z,101596.13
2023-03-04T04:04:54.004Z,101606.59
2023-03-04T04:07:20.970Z,101612.69
2023-03-04T04:09:48.257Z,101610.84
2023-03-04T04:12:17.133Z,101615.34
2023-03-04T04:14:44.084Z,101616.22
2023-03-04T04:17:11.302Z,101610.91
2023-03-04T04:19:38.773Z,101617.09
2023-03-04T04:22:05.730Z,101608.31
2023-03-04T04:24:32.642Z,101605.72
2023-03-04T04:26:59.555Z,101610.09
2023-03-04T04:29:26.483Z,101611.13
2023-03-04T04:31:53.434Z,101616.34
2023-03-04T04:34:20.254Z,101613.88
2023-03-04T04:36:47.188Z,101617.50
2023-03-04T04:39:15.088Z,101611.59
2023-03-04T04:41:43.479Z,101615.16
2023-03-04T04:44:10.883Z,101615.16
2023-03-04T04:46:38.833Z,101613.56
2023-03-04T04:49:07.344Z,101621.56
2023-03-04T04:51:35.920Z,101624.31
2023-03-04T04:54:04.221Z,101622.72
2023-03-04T04:56:31.361Z,101630.72
2023-03-04T04:59:01.241Z,101627.16
2023-03-04T05:01:28.924Z,101626.28
2023-03-04T05:03:56.107Z,101621.09
2023-03-04T05:06:24.622Z,101621.97
2023-03-04T05:08:52.145Z,101622.38
2023-03-04T05:11:26.230Z,101622.38
2023-03-04T05:13:53.685Z,101630.38
2023-03-04T05:16:20.577Z,101627.94
2023-03-04T05:18:47.631Z,101629.91
2023-03-04T05:21:15.041Z,101631.63
2023-03-04T05:23:43.576Z,101633.81
2023-03-04T05:26:15.629Z,101638.25
2023-03-04T05:28:42.713Z,101636.28
2023-03-04T05:31:09.971Z,101636.28
2023-03-04T05:33:37.454Z,101633.63
2023-03-04T05:36:06.514Z,101636.34
2023-03-04T05:38:34.007Z,101638.16
2023-03-04T05:41:04.588Z,101632.84
2023-03-04T05:43:32.325Z,101644.38
2023-03-04T05:45:59.593Z,101653.13
2023-03-04T05:48:26.595Z,101655.88
2023-03-04T05:50:57.839Z,101649.66
2023-03-04T05:53:25.387Z,101664.66
2023-03-04T05:55:52.867Z,101668.06
2023-03-04T05:58:20.500Z,101668.34
2023-03-04T06:00:47.758Z,101670.88
2023-03-04T06:03:19.760Z,101664.16
2023-03-04T06:05:47.010Z,101667.78
2023-03-04T06:08:14.978Z,101666.09
2023-03-04T06:10:42.403Z,101660.91
2023-03-04T06:13:10.867Z,101664.28
2023-03-04T06:15:39.694Z,101670.53
2023-03-04T06:18:07.897Z,101673.34
2023-03-04T06:20:34.988Z,101663.53
2023-03-04T06:23:02.274Z,101667.78
2023-03-04T06:25:29.784Z,101671.13
2023-03-04T06:27:57.839Z,101674.50
2023-03-04T06:30:24.937Z,101685.03
2023-03-04T06:32:51.883Z,101680.94
2023-03-04T06:35:18.966Z,101690.50
2023-03-04T06:37:45.972Z,101694.78
2023-03-04T06:40:13.356Z,101690.84
2023-03-04T06:42:41.261Z,101696.28
2023-03-04T06:45:09.880Z,101705.81
2023-03-04T06:47:37.346Z,101703.81
2023-03-04T06:50:05.178Z,101716.53
2023-03-04T06:52:32.071Z,101711.38
2023-03-04T06:54:58.944Z,101712.91
2023-03-04T06:57:25.856Z,101715.91
2023-03-04T06:59:52.864Z,101711.13
2023-03-04T07:02:20.030Z,101709.84
2023-03-04T07:04:47.304Z,101716.22
2023-03-04T07:07:14.762Z,101719.00
2023-03-04T07:09:41.743Z,101728.81
2023-03-04T07:12:08.778Z,101729.69
2023-03-04T07:14:35.785Z,101729.63
2023-03-04T07:17:02.827Z,101737.53
2023-03-04T07:19:30.127Z,101737.47
2023-03-04T07:21:57.467Z,101740.13
2023-03-04T07:24:24.828Z,101740.47
2023-03-04T07:26:51.804Z,101743.28
2023-03-04T07:29:19.639Z,101750.72
2023-03-04T07:31:46.783Z,101747.81
2023-03-04T07:34:15.069Z,101749.09
2023-03-04T07:36:43.107Z,101741.84
2023-03-04T07:39:13.173Z,101751.38
2023-03-04T07:41:41.108Z,101750.50
2023-03-04T07:44:09.995Z,101746.88
2023-03-04T07:46:38.293Z,101744.31
2023-03-04T07:49:05.287Z,101752.72
2023-03-04T07:51:32.258Z,101753.88
2023-03-04T07:54:01.157Z,101755.28
2023-03-04T07:56:30.880Z,101756.88
2023-03-04T07:58:58.455Z,101753.78
2023-03-04T08:01:30.006Z,101752.06
2023-03-04T08:03:57.880Z,101757.03
2023-03-04T08:06:26.882Z,101754.72
2023-03-04T08:09:03.483Z,101759.84
2023-03-04T08:11:31.295Z,101768.69
2023-03-04T08:13:58.702Z,101763.81
2023-03-04T08:16:26.154Z,101759.28
2023-03-04T08:18:56.656Z,101769.56
2023-03-04T08:21:25.713Z,101774.25
2023-03-04T08:23:53.769Z,101771.91
2023-03-04T08:26:24.795Z,101772.88
2023-03-04T08:28:52.527Z,101770.88
2023-03-04T08:31:20.327Z,101769.06
2023-03-04T08:33:47.660Z,101771.84
2023-03-04T08:36:15.784Z,101768.25
2023-03-04T08:38:43.285Z,101765.63
2023-03-04T08:41:10.539Z,101763.19
2023-03-04T08:43:37.815Z,101765.75
2023-03-04T08:46:05.575Z,101768.22
2023-03-04T08:48:32.537Z,101769.63
2023-03-04T08:50:59.500Z,101765.41
2023-03-04T08:53:26.700Z,101768.00
2023-03-04T08:55:53.689Z,101765.19
2023-03-04T08:58:20.875Z,101768.31
2023-03-04T09:00:51.607Z,101771.09
2023-03-04T09:03:20.525Z,101762.63
2023-03-04T09:05:49.586Z,101756.91
2023-03-04T09:08:17.402Z,101764.72
2023-03-04T09:10:46.293Z,101765.00
2023-03-04T09:13:17.093Z,101763.31
2023-03-04T09:15:49.112Z,101764.47
2023-03-04T09:18:17.833Z,101760.19
2023-03-04T09:20:46.048Z,101763.31
2023-03-04T09:23:13.443Z,101763.09
2023-03-04T09:25:44.461Z,101758.47
2023-03-04T09:28:12.733Z,101756.97
2023-03-04T09:30:40.441Z,101754.66
2023-03-04T09:33:07.522Z,101754.34
2023-03-04T09:35:34.501Z,101756.53
2023-03-04T09:38:01.544Z,101758.19
2023-03-04T09:40:37.713Z,101746.88
2023-03-04T09:43:06.846Z,101750.97
2023-03-04T09:45:40.255Z,101745.03
2023-03-04T09:48:09.611Z,101753.00
2023-03-04T09:50:46.187Z,101753.81
2023-03-04T09:53:18.854Z,101749.84
2023-03-04T09:55:50.528Z,101753.25
2023-03-04T09:58:38.672Z,101745.31
2023-03-04T10:01:25.605Z,101743.00
2023-03-04T10:04:00.222Z,101744.44
2023-03-04T10:06:27.740Z,101741.88
2023-03-04T10:09:02.261Z,101741.59
2023-03-04T10:11:32.906Z,101737.91
2023-03-04T10:14:12.560Z,101734.78
2023-03-04T10:16:51.989Z,101742.38
2023-03-04T10:20:00.751Z,101733.88
2023-03-04T10:22:31.955Z,101729.75
2023-03-04T10:25:21.346Z,101718.44
2023-03-04T10:27:56.498Z,101720.03
2023-03-04T10:31:00.587Z,101716.84
2023-03-04T10:33:30.871Z,101728.22
2023-03-04T10:36:14.055Z,101720.72
2023-03-04T10:38:42.822Z,101726.69
2023-03-04T10:41:14.161Z,101726.25
2023-03-04T10:43:42.703Z,101726.78
2023-03-04T10:46:12.372Z,101728.31
2023-03-04T10:48:43.573Z,101728.97
2023-03-04T10:51:20.563Z,101726.47
2023-03-04T10:53:51.566Z,101725.34
2023-03-04T10:56:46.508Z,101732.94
2023-03-04T10:59:28.920Z,101732.28
2023-03-04T11:01:55.866Z,101729.75
2023-03-04T11:04:28.108Z,101726.47
2023-03-04T11:06:55.882Z,101724.22
2023-03-04T11:09:25.921Z,101723.75
2023-03-04T11:11:55.333Z,101718.91
2023-03-04T11:14:29.619Z,101708.41
2023-03-04T11:17:01.914Z,101709.25
2023-03-04T11:19:38.554Z,101710.78
2023-03-04T11:22:06.098Z,101710.13
2023-03-04T11:24:37.183Z,101704.94
2023-03-04T11:27:08.821Z,101699.88
2023-03-04T11:29:43.436Z,101707.47
2023-03-04T11:32:15.608Z,101694.53
2023-03-04T11:34:57.225Z,101685.25
2023-03-04T11:37:36.090Z,101691.03
2023-03-04T11:40:12.398Z,101688.34
2023-03-04T11:42:48.442Z,101682.28
2023-03-04T11:45:29.169Z,101674.47
2023-03-04T11:48:27.732Z,101670.66
2023-03-04T11:51:29.447Z,101671.97
2023-03-04T11:54:20.915Z,101661.13
2023-03-04T11:57:03.132Z,101667.47
2023-03-04T11:59:34.965Z,101651.91
2023-03-04T12:02:12.725Z,101645.47
2023-03-04T12:04:57.706Z,101644.13
2023-03-04T12:07:46.324Z,101630.19
2023-03-04T12:10:31.970Z,101640.34
2023-03-04T12:13:07.475Z,101634.28
2023-03-04T12:15:58.786Z,101615.97
2023-03-04T12:18:37.943Z,101612.19
2023-03-04T12:21:22.027Z,101596.47
2023-03-04T12:23:48.815Z,101594.13
2023-03-04T12:26:15.954Z,101596.69
2023-03-04T12:28:53.449Z,101599.47
2023-03-04T12:31:39.697Z,101592.84
2023-03-04T12:34:44.604Z,101594.34
2023-03-04T12:37:35.771Z,101588.53
2023-03-04T12:40:18.389Z,101588.22
2023-03-04T12:43:13.720Z,101577.00
2023-03-04T12:45:40.468Z,101574.19
2023-03-04T12:48:26.003Z,101578.47
2023-03-04T12:51:20.308Z,101568.09
2023-03-04T12:54:20.978Z,101576.78
2023-03-04T12:56:55.057Z,101570.75
2023-03-04T12:59:26.644Z,101553.81
2023-03-04T13:02:14.924Z,101564.66
2023-03-04T13:04:59.821Z,101546.41
2023-03-04T13:07:38.918Z,101541.34
2023-03-04T13:10:12.910Z,101533.91
2023-03-04T13:12:49.467Z,101538.91
2023-03-04T13:15:22.488Z,101528.84
2023-03-04T13:17:54.632Z,101539.25
2023-03-04T13:20:24.308Z,101540.88
2023-03-04T13:22:59.373Z,101528.66
2023-03-04T13:25:32.585Z,101535.75
2023-03-04T13:28:00.358Z,101521.72
2023-03-04T13:30:36.174Z,101536.50
2023-03-04T13:33:08.947Z,101523.09
2023-03-04T13:35:54.879Z,101513.75
2023-03-04T13:38:31.245Z,101503.38
2023-03-04T13:41:22.464Z,101504.00
2023-03-04T13:43:50.558Z,101497.41
2023-03-04T13:46:20.673Z,101507.34
2023-03-04T13:48:50.392Z,101501.28
2023-03-04T13:51:32.816Z,101504.09
2023-03-04T13:53:59.689Z,101501.53
2023-03-04T13:56:50.392Z,101497.69
2023-03-04T13:59:26.283Z,101493.75
2023-03-04T14:02:01.235Z,101491.66
2023-03-04T14:04:37.349Z,101491.38
2023-03-04T14:07:19.717Z,101490.59
2023-03-04T14:10:07.685Z,101473.75
2023-03-04T14:12:41.448Z,101481.28
2023-03-04T14:15:31.519Z,101479.06
2023-03-04T14:18:01.164Z,101470.59
2023-03-04T14:20:37.857Z,101478.19
2023-03-04T14:23:24.364Z,101471.63
2023-03-04T14:25:51.531Z,101459.41
2023-03-04T14:28:20.612Z,101464.69
2023-03-04T14:30:56.992Z,101473.34
2023-03-04T14:33:26.581Z,101472.25
2023-03-04T14:36:02.810Z,101460.88
2023-03-04T14:38:39.036Z,101463.38
2023-03-04T14:41:10.763Z,101470.75
2023-03-04T14:43:47.331Z,101465.28
2023-03-04T14:46:18.911Z,101458.00
2023-03-04T14:48:51.389Z,101473.22
2023-03-04T14:51:42.604Z,101458.66
2023-03-04T14:54:53.917Z,101462.53
2023-03-04T14:57:26.708Z,101444.22
2023-03-04T14:59:54.633Z,101484.88
2023-03-04T15:02:35.751Z,101465.25
2023-03-04T15:05:25.881Z,101456.09
2023-03-04T15:08:01.124Z,101463.66
2023-03-04T15:10:34.117Z,101461.81
2023-03-04T15:13:04.116Z,101469.25
2023-03-04T15:15:42.810Z,101459.16
2023-03-04T15:18:27.423Z,101453.78
2023-03-04T15:20:55.594Z,101460.41
2023-03-04T15:23:22.486Z,101456.50
2023-03-04T15:25:54.753Z,101462.97
2023-03-04T15:28:22.107Z,101466.00
2023-03-04T15:30:49.365Z,101458.69
2023-03-04T15:33:16.335Z,101472.38
2023-03-04T15:35:51.824Z,101460.13
2023-03-04T15:38:19.357Z,101461.59
2023-03-04T15:40:46.676Z,101457.19
2023-03-04T15:43:23.567Z,101460.34
2023-03-04T15:45:51.935Z,101459.25
2023-03-04T15:48:20.072Z,101459.78
2023-03-04T15:50:55.886Z,101458.56
2023-03-04T15:53:36.053Z,101461.22
2023-03-04T15:56:05.277Z,101456.22
2023-03-04T15:58:34.980Z,101444.28
2023-03-04T16:01:02.764Z,101447.53
2023-03-04T16:03:29.700Z,101454.25
2023-03-04T16:05:57.161Z,101453.09
2023-03-04T16:08:27.358Z,101454.19
2023-03-04T16:10:54.864Z,101459.19
2023-03-04T16:13:24.161Z,101448.47
2023-03-04T16:15:51.611Z,101456.97
2023-03-04T16:18:18.833Z,101452.56
2023-03-04T16:20:49.444Z,101454.28
2023-03-04T16:23:21.780Z,101444.19
2023-03-04T16:25:50.881Z,101452.38
2023-03-04T16:28:17.804Z,101458.34
2023-03-04T16:30:44.847Z,101458.00
2023-03-04T16:33:11.836Z,101458.50
2023-03-04T16:35:40.115Z,101453.09
2023-03-04T16:38:20.625Z,101458.00
2023-03-04T16:40:47.812Z,101457.28
2023-03-04T16:43:14.888Z,101458.56
2023-03-04T16:45:42.237Z,101468.06
2023-03-04T16:48:09.183Z,101464.41
2023-03-04T16:50:37.846Z,101462.59
2023-03-04T16:53:05.413Z,101464.41
2023-03-04T16:55:32.659Z,101460.53
2023-03-04T16:57:59.511Z,101455.16
2023-03-04T17:00:28.893Z,101454.75
2023-03-04T17:03:01.176Z,101457.56
2023-03-04T17:05:31.807Z,101459.97
2023-03-04T17:07:58.859Z,101454.84
2023-03-04T17:10:26.845Z,101457.66
2023-03-04T17:12:54.167Z,101460.44
2023-03-04T17:15:21.428Z,101460.91
2023-03-04T17:17:51.072Z,101466.97
2023-03-04T17:20:19.682Z,101465.47
2023-03-04T17:22:46.702Z,101465.09
2023-03-04T17:25:14.696Z,101468.78
2023-03-04T17:27:42.373Z,101470.47
2023-03-04T17:30:11.726Z,101470.28
2023-03-04T17:32:40.532Z,101468.78
2023-03-04T17:35:08.840Z,101475.84
2023-03-04T17:37:36.354Z,101476.06
2023-03-04T17:40:05.896Z,101473.50
2023-03-04T17:42:33.163Z,101478.00
2023-03-04T17:45:00.214Z,101481.88
2023-03-04T17:47:27.256Z,101490.66
2023-03-04T17:49:54.248Z,101491.00
2023-03-04T17:52:21.546Z,101489.63
2023-03-04T17:54:48.839Z,101497.78
2023-03-04T17:57:18.322Z,101494.13
2023-03-04T17:59:46.652Z,101495.00
2023-03-04T18:02:16.567Z,101502.06
2023-03-04T18:04:46.134Z,101492.22
2023-03-04T18:07:13.097Z,101503.13
2023-03-04T18:09:40.189Z,101510.44
2023-03-04T18:12:07.517Z,101507.84
2023-03-04T18:14:34.748Z,101512.47
2023-03-04T18:17:01.664Z,101510.91
2023-03-04T18:19:28.637Z,101512.59
2023-03-04T18:21:55.569Z,101512.81
2023-03-04T18:24:22.534Z,101515.50
2023-03-04T18:26:49.521Z,101522.56
2023-03-04T18:29:16.507Z,101520.09
2023-03-04T18:31:43.440Z,101521.59
2023-03-04T18:34:11.115Z,101520.94
2023-03-04T18:36:38.264Z,101526.31
2023-03-04T18:39:07.502Z,101520.94
2023-03-04T18:41:34.655Z,101526.22
2023-03-04T18:44:01.623Z,101536.16
2023-03-04T18:46:30.008Z,101536.16
2023-03-04T18:49:01.665Z,101533.81
2023-03-04T18:51:28.889Z,101532.97
2023-03-04T18:53:55.826Z,101533.16
2023-03-04T18:56:37.693Z,101539.91
2023-03-04T18:59:21.774Z,101538.50
2023-03-04T19:01:50.634Z,101540.22
2023-03-04T19:04:19.474Z,101545.38
2023-03-04T19:06:46.462Z,101542.47
2023-03-04T19:09:13.400Z,101541.53
2023-03-04T19:11:40.347Z,101544.06
2023-03-04T19:14:07.467Z,101540.66
2023-03-04T19:16:34.642Z,101543.03
2023-03-04T19:19:01.556Z,101540.88
2023-03-04T19:21:28.448Z,101543.63
2023-03-04T19:23:55.332Z,101543.63
2023-03-04T19:26:22.541Z,101548.16
2023-03-04T19:28:49.692Z,101548.34
2023-03-04T19:31:16.705Z,101546.75
2023-03-04T19:33:43.687Z,101557.56
2023-03-04T19:36:10.758Z,101556.69
2023-03-04T19:38:37.757Z,101559.69
2023-03-04T19:41:10.258Z,101564.31
2023-03-04T19:43:39.308Z,101562.69
2023-03-04T19:46:08.111Z,101562.22
2023-03-04T19:48:36.370Z,101566.06
2023-03-04T19:51:04.846Z,101571.66
2023-03-04T19:53:34.746Z,101572.03
2023-03-04T19:56:01.873Z,101573.13
2023-03-04T19:58:28.712Z,101581.63
2023-03-04T20:00:56.317Z,101585.38
2023-03-04T20:03:24.250Z,101578.63
2023-03-04T20:05:51.226Z,101587.59
2023-03-04T20:08:18.909Z,101584.50
2023-03-04T20:10:45.890Z,101583.06
2023-03-04T20:13:12.754Z,101579.63
2023-03-04T20:15:43.077Z,101583.25
2023-03-04T20:18:10.278Z,101580.72
2023-03-04T20:20:40.021Z,101581.75
2023-03-04T20:23:07.224Z,101587.31
2023-03-04T20:25:34.187Z,101591.13
2023-03-04T20:28:01.947Z,101589.59
2023-03-04T20:30:29.137Z,101584.47
2023-03-04T20:32:56.175Z,101583.69
2023-03-04T20:35:23.247Z,101589.97
2023-03-04T20:37:51.008Z,101586.75
2023-03-04T20:40:18.326Z,101587.78
2023-03-04T20:42:46.656Z,101590.75
2023-03-04T20:45:14.097Z,101591.91
2023-03-04T20:47:41.449Z,101593.06
2023-03-04T20:50:08.995Z,101594.97
2023-03-04T20:52:35.910Z,101602.53
2023-03-04T20:55:02.824Z,101594.69
2023-03-04T20:57:30.524Z,101588.88
2023-03-04T20:59:57.470Z,101599.56
2023-03-04T21:02:26.004Z,101596.13
2023-03-04T21:04:53.956Z,101592.88
2023-03-04T21:07:20.920Z,101593.09
2023-03-04T21:09:47.967Z,101593.47
2023-03-04T21:12:15.070Z,101594.41
2023-03-04T21:14:42.027Z,101591.94
2023-03-04T21:17:10.316Z,101595.75
2023-03-04T21:19:44.343Z,101591.38
2023-03-04T21:22:18.036Z,101599.56
2023-03-04T21:24:46.526Z,101593.75
2023-03-04T21:27:16.604Z,101596.50
2023-03-04T21:29:43.670Z,101601.16
2023-03-04T21:32:24.893Z,101603.91
2023-03-04T21:34:54.549Z,101609.44
2023-03-04T21:37:23.842Z,101610.69
2023-03-04T21:39:51.030Z,101609.16
2023-03-04T21:42:17.944Z,101607.72
2023-03-04T21:44:49.706Z,101614.97
2023-03-04T21:47:18.388Z,101617.78
2023-03-04T21:49:45.303Z,101622.38
2023-03-04T21:52:13.203Z,101626.75
2023-03-04T21:54:40.337Z,101620.75
2023-03-04T21:57:07.328Z,101618.19
2023-03-04T21:59:34.269Z,101615.50
2023-03-04T22:02:02.484Z,101613.94
2023-03-04T22:04:29.453Z,101615.88
2023-03-04T22:06:56.364Z,101620.41
2023-03-04T22:09:23.287Z,101620.41
2023-03-04T22:11:50.789Z,101618.69
2023-03-04T22:14:17.822Z,101614.41
2023-03-04T22:16:54.380Z,101611.84
2023-03-04T22:19:26.969Z,101615.63
2023-03-04T22:21:54.668Z,101606.88
2023-03-04T22:24:22.006Z,101611.63
2023-03-04T22:26:49.507Z,101616.19
2023-03-04T22:29:16.528Z,101609.28
2023-03-04T22:31:43.695Z,101604.28
2023-03-04T22:34:13.228Z,101604.47
2023-03-04T22:36:43.275Z,101601.22
2023-03-04T22:39:12.895Z,101606.72
2023-03-04T22:41:39.914Z,101596.22
2023-03-04T22:44:07.652Z,101606.91
2023-03-04T22:46:36.985Z,101607.09
2023-03-04T22:49:06.448Z,101603.81
2023-03-04T22:51:33.370Z,101604.75
2023-03-04T22:54:00.229Z,101598.84
2023-03-04T22:56:27.279Z,101600.72
2023-03-04T22:58:54.248Z,101600.91
2023-03-04T23:01:21.484Z,101593.84
2023-03-04T23:03:49.503Z,101598.41
2023-03-04T23:06:21.999Z,101596.97
2023-03-04T23:08:50.563Z,101596.28
2023-03-04T23:11:35.561Z,101601.88
2023-03-04T23:14:06.549Z,101595.06
2023-03-04T23:16:37.313Z,101597.13
2023-03-04T23:19:05.684Z,101597.13
2023-03-04T23:21:34.090Z,101589.41
2023-03-04T23:24:02.437Z,101592.13
2023-03-04T23:26:35.098Z,101595.91
2023-03-04T23:29:04.490Z,101590.78
2023-03-04T23:31:32.874Z,101593.50
2023-03-04T23:34:01.156Z,101592.84
2023-03-04T23:36:37.897Z,101591.09
2023-03-04T23:39:06.914Z,101591.25
2023-03-04T23:41:34.934Z,101589.72
2023-03-04T23:44:02.566Z,101589.88
2023-03-04T23:46:29.959Z,101586.28
2023-03-04T23:48:57.811Z,101591.63
2023-03-04T23:51:27.946Z,101588.16
2023-03-04T23:53:56.177Z,101588.47
2023-03-04T23:56:26.146Z,101584.28
2023-03-04T23:58:53.866Z,101587.13
